Tiempo atmosférico en la estación meteorológica de Telde, Centro Forestal Doramas, Las Palmas (344 m.)



Fecha
DESCASC
Temp. máxima en grados centígrados (hora)
DESCASC
Temp. mínima en grados centígrados (hora)
DESCASC
Temp. media en grados centígrados
DESCASC
Racha de viento máxima en m/sg (hora)
DESCASC
Velocidad máxima media en intervalos de 10 minutos(hora)
DESCASC
Precipitaciones diarias en mm
DESCASC
Precipitaciones de 00:00 a 06:00 en mm
DESCASC
Precipitaciones de 06:00 a 12:00 en mm
DESCASC
Precipitaciones de 12:00 a 18:00 en mm
DESCASC
Precipitaciones de 18:00 a 24:00 en mm
DESCASC
02-10-2019 34.2 (12:50) 21.5 (00:00) 27.9 8.89 (04:00) 5 (03:50) 0 0 0 0 0
01-10-2019 31.6 (15:50) 22.7 (00:00) 27.2 7.5 (14:30) 5 (08:40) 0 0 0 0 0
30-09-2019 31.5 (16:00) 19.1 (00:00) 25.3 8.33 (17:00) 5.28 (17:40) 0 0 0 0 0
03-10-2019 30.3 (13:00) 20.8 (00:00) 25.5 9.72 (18:30) 5.56 (18:30) 0 0 0 0 0
04-10-2019 27.9 (15:40) 20.4 (00:00) 24.1 13.06 (08:50) 7.5 (08:50) 0 0 0 0 0
22-09-2019 27.5 (16:40) 17.8 (00:00) 22.6 9.72 (14:50) 5.56 (14:40) 1 0 0 0 1
29-09-2019 26.7 (16:40) 17.7 (00:00) 22.2 9.17 (05:50) 5 (05:50) 0 0 0 0 0
21-09-2019 26.6 (16:10) 16.3 (00:00) 21.4 9.17 (18:20) 5.83 (18:00) 0 0 0 0 0
20-09-2019 26 (16:00) 18.9 (00:00) 22.4 10 (05:10) 6.39 (05:10) 0 0 0 0 0
19-09-2019 25.7 (14:30) 18.1 (00:00) 21.9 9.72 (19:20) 6.67 (18:40) 0 0 0 0 0
18-09-2019 25.5 (13:40) 18.2 (00:00) 21.9 8.33 (16:00) 5.28 (10:50) 0 0 0 0 0
26-09-2019 25.3 (15:50) 19.4 (00:00) 22.3 9.72 (19:50) 6.39 (12:50) 0 0 0 0 0
08-10-2019 25.2 (16:20) 17.1 (00:00) 21.2 9.17 (10:40) 6.39 (11:20) 0 0 0 0 0
25-09-2019 25.2 (13:00) 18.8 (00:00) 22 11.39 (10:10) 6.67 (18:00) 0 0 0 0 0
05-10-2019 25.2 (14:40) 19.7 (00:00) 22.5 13.33 (00:40) 7.5 (14:10) 0 0 0 0 0
27-09-2019 25 (14:50) 19.5 (00:00) 22.3 10.83 (18:50) 6.94 (16:00) 0 0 0 0 0
23-09-2019 24.8 (14:00) 19.2 (00:00) 22 10.83 (14:40) 7.5 (17:00) 0.2 0.2 0 0 0
07-10-2019 24.8 (16:50) 18.8 (00:00) 21.8 10.28 (20:50) 5.83 (20:50) 0 0 0 0 0
09-10-2019 24.7 (15:00) 18 (00:00) 21.4 11.67 (11:10) 7.22 (03:20) 0 0 0 0 0
28-09-2019 24.4 (16:40) 18.7 (00:00) 21.6 8.89 (14:10) 5.83 (19:40) 0 0 0 0 0
06-10-2019 24.3 (15:10) 19.4 (00:00) 21.8 11.11 (00:20) 6.67 (00:10) 0 0 0 0 0
24-09-2019 24.1 (14:10) 19 (00:00) 21.6 11.67 (16:30) 7.5 (16:30) 0 0 0 0 0
11-10-2019 24.1 (12:10) 17.5 (00:00) 20.8 9.17 (16:30) 5.83 (18:40) 0 0 0 0 0
10-10-2019 23.6 (16:30) 18.2 (00:00) 20.9 8.33 (15:00) 5.28 (17:00) 0 0 0 0 0
14-10-2019 23.4 (15:10) 17 (00:00) 20.2 8.61 (14:20) 6.11 (14:10) 0 0 0 0 0
13-10-2019 22.9 (11:50) 16.5 (00:00) 19.7 6.67 (12:30) 4.17 (23:50) 0 0 0 0 0
12-10-2019 22.2 (14:30) 18.4 (00:00) 20.3 7.78 (03:40) 5 (00:50) 0 0 0 0 0
17-10-2019 21.8 (15:40) 17.7 (00:00) 19.8 9.17 (16:10) 5 (15:20) 0 0 0 0 0
15-10-2019 20.8 (12:20) 17.3 (00:00) 19 6.67 (03:20) 3.89 (03:40) 0 0 0 0 0
16-10-2019 19.7 (11:10) 17.9 (00:00) 18.8 6.67 (10:30) 3.61 (09:10) 0.2 0 0 0.2 0

Gráficas

Temp. máximas Temp. mínimas Temp. medias Precipitaciones Rachas de viento máximas Velocidades máximas media en intervalos de 10 minutos

Datos horarios

Fecha y hora oficial Temperatura (ºC) Velocidad del viento (km/h) Dirección del viento Racha (km/h) Dirección de racha Precipitación (mm) Presión (hPa) Tendencia (hPa) Humedad (%)
2019-10-17 23:00:00 18.2 9 Noroeste 21 Oeste 0 -- -- 76
2019-10-17 22:00:00 18.1 10 Oeste 22 Noroeste 0 -- -- 75
2019-10-17 21:00:00 18.4 10 Noroeste 21 Oeste 0 -- -- 72
2019-10-17 20:00:00 18.8 9 Noroeste 18 Noroeste 0 -- -- 68
2019-10-17 19:00:00 19.7 13 Noroeste 20 Noroeste 0 -- -- 63
2019-10-17 18:00:00 20.7 9 Nordeste 28 Nordeste 0 -- -- 58
2019-10-17 17:00:00 21.2 15 Nordeste 33 Nordeste 0 -- -- 58
2019-10-17 16:00:00 21.6 15 Nordeste 31 Nordeste 0 -- -- 58
2019-10-17 15:00:00 21.7 15 Nordeste 33 Nordeste 0 -- -- 59
2019-10-17 14:00:00 20.9 14 Nordeste 31 Norte 0 -- -- 60
2019-10-17 13:00:00 21 17 Norte 30 Norte 0 -- -- 63
2019-10-17 12:00:00 21 10 Norte 23 Noroeste 0 -- -- 62
2019-10-17 11:00:00 19.6 14 Noroeste 22 Noroeste 0 -- -- 67
2019-10-17 10:00:00 19 13 Noroeste 26 Noroeste 0 -- -- 72
2019-10-17 09:00:00 18.3 6 Noroeste 18 Noroeste 0 -- -- 79
2019-10-17 08:00:00 17.9 8 Noroeste 14 Noroeste 0 -- -- 81
2019-10-17 07:00:00 18 9 Noroeste 16 Noroeste 0 -- -- 80
2019-10-17 06:00:00 17.9 5 Oeste 14 Noroeste 0 -- -- 79
2019-10-17 05:00:00 17.7 6 Noroeste 17 Noroeste 0 -- -- 80
2019-10-17 04:00:00 18 9 Noroeste 17 Noroeste 0 -- -- 80
2019-10-17 03:00:00 18.2 11 Noroeste 20 Noroeste 0 -- -- 82
2019-10-17 02:00:00 18.4 11 Noroeste 17 Noroeste 0 -- -- 81
2019-10-17 01:00:00 18.4 7 Norte 12 Norte 0 -- -- 83
2019-10-17 00:00:00 18.6 6 Noroeste 13 Noroeste 0 -- -- 83
2019-10-16 23:00:00 18.6 5 Noroeste 12 Noroeste 0 -- -- 82
2019-10-16 22:00:00 18.5 2 Noroeste 9 Oeste 0 -- -- 84
2019-10-16 21:00:00 18.5 6 Norte 15 Norte 0 -- -- 84
2019-10-16 20:00:00 18.7 9 Norte 15 Norte 0 -- -- 84
2019-10-16 19:00:00 19.1 6 Noroeste 12 Oeste 0 -- -- 77
2019-10-16 18:00:00 19.2 4 Norte 13 Norte 0 -- -- 81
2019-10-16 17:00:00 19 7 Noroeste 15 Noroeste 0 -- -- 82
2019-10-16 16:00:00 18.6 6 Norte 19 Norte 0.2 -- -- 84
2019-10-16 15:00:00 18.9 11 Norte 22 Nordeste 0 -- -- 83
2019-10-16 14:00:00 18.8 7 Norte 19 Norte 0 -- -- 85
2019-10-16 13:00:00 18.8 8 Norte 18 Norte 0 -- -- 85
2019-10-16 12:00:00 19.2 11 Norte 20 Norte 0 -- -- 82
2019-10-16 11:00:00 19.6 7 Norte 24 Norte 0 -- -- 78
2019-10-16 10:00:00 18.7 10 Norte 19 Noroeste 0 -- -- 80
2019-10-16 09:00:00 18.8 6 Norte 14 Norte 0 -- -- 83
2019-10-16 08:00:00 18.3 3 Noroeste 10 Noroeste 0 -- -- 84
2019-10-16 07:00:00 18.2 8 Noroeste 12 Noroeste 0 -- -- 82
2019-10-16 06:00:00 17.9 5 Noroeste 14 Norte 0 -- -- 83
2019-10-16 05:00:00 18.4 6 Norte 12 Noroeste 0 -- -- 82
2019-10-16 04:00:00 18.6 5 Norte 15 Norte 0 -- -- 81
2019-10-16 03:00:00 18.6 6 Norte 15 Norte 0 -- -- 81
2019-10-16 02:00:00 18.7 7 Norte 17 Norte 0 -- -- 82
2019-10-16 01:00:00 18.8 6 Norte 16 Norte 0 -- -- 82
2019-10-16 00:00:00 18.8 7 Norte 19 Norte 0 -- -- 80
2019-10-15 23:00:00 18.9 10 Norte 18 Norte 0 -- -- 79
2019-10-15 22:00:00 18.8 7 Norte 19 Noroeste 0 -- -- 78
2019-10-15 21:00:00 18.7 8 Noroeste 17 Noroeste 0 -- -- 77
2019-10-15 20:00:00 18.8 9 Noroeste 19 Nordeste 0 -- -- 76
2019-10-15 19:00:00 18.9 8 Nordeste 24 Nordeste 0 -- -- 71
2019-10-15 18:00:00 19.5 11 Norte 22 Norte 0 -- -- 69
2019-10-15 17:00:00 20.1 14 Noroeste 23 Noroeste 0 -- -- 68
2019-10-15 16:00:00 20 10 Norte 20 Norte 0 -- -- 71
2019-10-15 15:00:00 19 6 Nordeste 16 Nordeste 0 -- -- 81
2019-10-15 14:00:00 19.3 10 Nordeste 18 Nordeste 0 -- -- 80
2019-10-15 13:00:00 20.4 9 Nordeste 21 Nordeste 0 -- -- 75
2019-10-15 12:00:00 20.4 9 Nordeste 18 Nordeste 0 -- -- 72
2019-10-15 11:00:00 19.8 5 Norte 12 Noroeste 0 -- -- 73
2019-10-15 10:00:00 19 6 Noroeste 10 Noroeste 0 -- -- 78
2019-10-15 09:00:00 17.7 6 Oeste 14 Oeste 0 -- -- 84
2019-10-15 08:00:00 17.4 9 Oeste 15 Oeste 0 -- -- 86
2019-10-15 07:00:00 17.8 6 Noroeste 15 Noroeste 0 -- -- 86
2019-10-15 06:00:00 18.3 6 Noroeste 16 Oeste 0 -- -- 81
2019-10-15 05:00:00 18.2 9 Noroeste 21 Oeste 0 -- -- 80
2019-10-15 04:00:00 18.3 13 Noroeste 24 Noroeste 0 -- -- 80
2019-10-15 03:00:00 18.4 11 Oeste 18 Oeste 0 -- -- 74
2019-10-15 02:00:00 17.9 8 Noroeste 17 Noroeste 0 -- -- 78
2019-10-15 01:00:00 18.2 7 Noroeste 21 Noroeste 0 -- -- 75
2019-10-15 00:00:00 18.3 13 Noroeste 22 Oeste 0 -- -- 76
2019-10-14 23:00:00 18.3 12 Oeste 22 Noroeste 0 -- -- 67
2019-10-14 22:00:00 18.4 9 Noroeste 21 Norte 0 -- -- 68
2019-10-14 21:00:00 18.6 10 Noroeste 21 Noroeste 0 -- -- 69
2019-10-14 20:00:00 18.9 9 Noroeste 23 Noroeste 0 -- -- 73
2019-10-14 19:00:00 19.7 13 Noroeste 23 Noroeste 0 -- -- 68
2019-10-14 18:00:00 20.3 11 Noroeste 27 Norte 0 -- -- 72
2019-10-14 17:00:00 20.9 12 Norte 29 Nordeste 0 -- -- 73
2019-10-14 16:00:00 20.9 17 Nordeste 31 Nordeste 0 -- -- 72
2019-10-14 15:00:00 23.2 14 Norte 31 Norte 0 -- -- 60
2019-10-14 14:00:00 23.2 18 Norte 30 Norte 0 -- -- 62
2019-10-14 13:00:00 22.4 16 Norte 28 Norte 0 -- -- 67
2019-10-14 12:00:00 21.1 14 Norte 27 Noroeste 0 -- -- 73
2019-10-14 11:00:00 20 12 Norte 24 Norte 0 -- -- 73
2019-10-14 10:00:00 19.9 11 Noroeste 22 Oeste 0 -- -- 77
2019-10-14 09:00:00 18.9 7 Norte 23 Noroeste 0 -- -- 84
2019-10-14 08:00:00 18.6 13 Noroeste 23 Oeste 0 -- -- 83
2019-10-14 07:00:00 18.7 10 Noroeste 24 Norte 0 -- -- 82
2019-10-14 06:00:00 18.5 15 Oeste 21 Oeste 0 -- -- 72
2019-10-14 05:00:00 18.2 9 Noroeste 15 Noroeste 0 -- -- 79
2019-10-14 04:00:00 18.4 8 Oeste 17 Noroeste 0 -- -- 74
2019-10-14 03:00:00 18 13 Oeste 18 Oeste 0 -- -- 71
2019-10-14 02:00:00 17 5 Sudoeste 17 Oeste 0 -- -- 72
2019-10-14 01:00:00 18 11 Oeste 16 Oeste 0 -- -- 71
2019-10-14 00:00:00 17.9 12 Oeste 19 Oeste 0 -- -- 68
2019-10-13 23:00:00 17.9 9 Oeste 16 Oeste 0 -- -- 67
2019-10-13 22:00:00 17.8 7 Oeste 11 Oeste 0 -- -- 73
2019-10-13 21:00:00 18.3 5 Oeste 8 Oeste 0 -- -- 75
2019-10-13 20:00:00 19.5 3 Este 9 Este 0 -- -- 71
2019-10-13 19:00:00 20.4 6 Nordeste 15 Nordeste 0 -- -- 68
2019-10-13 18:00:00 20.9 8 Este 18 Nordeste 0 -- -- 66
2019-10-13 17:00:00 21.1 6 Nordeste 15 Este 0 -- -- 67
2019-10-13 16:00:00 20.8 9 Este 18 Este 0 -- -- 68
2019-10-13 15:00:00 22.1 9 Nordeste 19 Este 0 -- -- 62
2019-10-13 14:00:00 22 11 Este 23 Este 0 -- -- 62
2019-10-13 13:00:00 22.7 10 Este 24 Este 0 -- -- 59
2019-10-13 12:00:00 22.9 11 Nordeste 20 Nordeste 0 -- -- 56
2019-10-13 11:00:00 21.7 6 Oeste 13 Noroeste 0 -- -- 59
2019-10-13 10:00:00 20.2 6 Oeste 11 Oeste 0 -- -- 63
2019-10-13 09:00:00 17.3 9 Oeste 16 Oeste 0 -- -- 70
2019-10-13 08:00:00 17.1 10 Oeste 15 Oeste 0 -- -- 72
2019-10-13 07:00:00 16.5 9 Oeste 17 Oeste 0 -- -- 74
2019-10-13 06:00:00 17.5 6 Oeste 17 Oeste 0 -- -- 71
2019-10-13 05:00:00 17.9 9 Oeste 15 Oeste 0 -- -- 72
2019-10-13 04:00:00 17.4 9 Oeste 14 Oeste 0 -- -- 73
2019-10-13 03:00:00 17.2 10 Oeste 17 Oeste 0 -- -- 73
2019-10-13 02:00:00 18 12 Oeste 18 Oeste 0 -- -- 73
2019-10-13 01:00:00 18.5 9 Norte 14 Norte 0 -- -- 83
2019-10-13 00:00:00 19 5 Norte 14 Noroeste 0 -- -- 81
2019-10-12 23:00:00 18.7 6 Noroeste 20 Oeste 0 -- -- 80
2019-10-12 22:00:00 19.1 9 Noroeste 18 Oeste 0 -- -- 79
2019-10-12 21:00:00 19.4 12 Norte 21 Norte 0 -- -- 81
2019-10-12 20:00:00 19.7 11 Norte 26 Norte 0 -- -- 78
2019-10-12 19:00:00 20.3 13 Norte 22 Noroeste 0 -- -- 76
2019-10-12 18:00:00 21 10 Noroeste 25 Norte 0 -- -- 70
2019-10-12 17:00:00 20.8 10 Nordeste 23 Norte 0 -- -- 73
2019-10-12 16:00:00 21.2 12 Nordeste 25 Este 0 -- -- 72
2019-10-12 15:00:00 21.9 14 Este 22 Este 0 -- -- 68
2019-10-12 14:00:00 21.7 11 Este 21 Este 0 -- -- 65
2019-10-12 13:00:00 21.5 11 Nordeste 22 Este 0 -- -- 65
2019-10-12 12:00:00 20.8 11 Nordeste 25 Nordeste 0 -- -- 70
2019-10-12 11:00:00 20.4 8 Nordeste 22 Nordeste 0 -- -- 76
2019-10-12 10:00:00 20.2 10 Noroeste 24 Norte 0 -- -- 75
2019-10-12 09:00:00 19.3 6 Norte 19 Oeste 0 -- -- 71
2019-10-12 08:00:00 18.9 13 Oeste 21 Oeste 0 -- -- 68
2019-10-12 07:00:00 18.5 11 Oeste 21 Noroeste 0 -- -- 70
2019-10-12 06:00:00 18.4 7 Noroeste 17 Norte 0 -- -- 76
2019-10-12 05:00:00 18.9 9 Noroeste 23 Noroeste 0 -- -- 81
2019-10-12 04:00:00 19.2 12 Noroeste 28 Noroeste 0 -- -- 79
2019-10-12 03:00:00 19.3 15 Oeste 26 Oeste 0 -- -- 70
2019-10-12 02:00:00 19 13 Noroeste 25 Noroeste 0 -- -- 73
2019-10-12 01:00:00 19.4 11 Noroeste 27 Noroeste 0 -- -- 72
2019-10-12 00:00:00 19.3 13 Noroeste 32 Noroeste 0 -- -- 72
2019-10-11 23:00:00 19.6 13 Noroeste 31 Noroeste 0 -- -- 76
2019-10-11 22:00:00 19.9 14 Norte 23 Norte 0 -- -- 70
2019-10-11 21:00:00 19.7 12 Noroeste 27 Norte 0 -- -- 74
2019-10-11 20:00:00 20.1 14 Norte 29 Norte 0 -- -- 74
2019-10-11 19:00:00 20.9 16 Norte 30 Noroeste 0 -- -- 69
2019-10-11 18:00:00 22.5 16 Noroeste 32 Noroeste 0 -- -- 59
2019-10-11 17:00:00 22.6 18 Norte 33 Noroeste 0 -- -- 62
2019-10-11 16:00:00 23.3 17 Norte 33 Noroeste 0 -- -- 60
2019-10-11 15:00:00 21.9 17 Este 30 Este 0 -- -- 68
2019-10-11 14:00:00 23.7 10 Nordeste 28 Nordeste 0 -- -- 60
2019-10-11 13:00:00 23.4 14 Nordeste 30 Este 0 -- -- 63
2019-10-11 12:00:00 23.7 13 Norte 27 Norte 0 -- -- 54
2019-10-11 11:00:00 22.9 14 Norte 27 Norte 0 -- -- 56
2019-10-11 10:00:00 21.6 15 Norte 25 Noroeste 0 -- -- 58
2019-10-11 09:00:00 19.3 11 Oeste 21 Oeste 0 -- -- 65
2019-10-11 08:00:00 18.2 14 Oeste 22 Oeste 0 -- -- 68
2019-10-11 07:00:00 18.2 14 Oeste 21 Oeste 0 -- -- 70
2019-10-11 06:00:00 18.2 11 Oeste 21 Oeste 0 -- -- 68
2019-10-11 05:00:00 17.7 14 Oeste 20 Oeste 0 -- -- 70
2019-10-11 04:00:00 17.8 10 Oeste 17 Oeste 0 -- -- 71
2019-10-11 03:00:00 18.2 11 Oeste 16 Oeste 0 -- -- 71
2019-10-11 02:00:00 18.6 12 Oeste 17 Oeste 0 -- -- 73
2019-10-11 01:00:00 19 8 Noroeste 19 Norte 0 -- -- 81
2019-10-11 00:00:00 19.6 10 Norte 15 Norte 0 -- -- 81
2019-10-10 23:00:00 19.7 8 Norte 14 Norte 0 -- -- 83
2019-10-10 22:00:00 19.9 9 Norte 18 Noroeste 0 -- -- 81
2019-10-10 21:00:00 20 11 Norte 19 Noroeste 0 -- -- 80
2019-10-10 20:00:00 20.2 10 Norte 17 Norte 0 -- -- 82
2019-10-10 19:00:00 20.6 8 Norte 21 Nordeste 0 -- -- 80
2019-10-10 18:00:00 21.4 14 Este 28 Noroeste 0 -- -- 77
2019-10-10 17:00:00 22.9 19 Norte 28 Norte 0 -- -- 62
2019-10-10 16:00:00 22.4 10 Nordeste 28 Nordeste 0 -- -- 71
2019-10-10 15:00:00 22.7 14 Nordeste 30 Norte 0 -- -- 70
2019-10-10 14:00:00 22.5 12 Nordeste 24 Nordeste 0 -- -- 67
2019-10-10 13:00:00 22.1 12 Nordeste 28 Nordeste 0 -- -- 69
2019-10-10 12:00:00 22.7 13 Nordeste 27 Nordeste 0 -- -- 68
2019-10-10 11:00:00 21.9 13 Norte 26 Noroeste 0 -- -- 71
2019-10-10 10:00:00 21.9 14 Noroeste 29 Noroeste 0 -- -- 67
2019-10-10 09:00:00 19.8 13 Oeste 21 Oeste 0 -- -- 69
2019-10-10 08:00:00 18.5 12 Oeste 20 Oeste 0 -- -- 72
2019-10-10 07:00:00 18.2 13 Oeste 19 Oeste 0 -- -- 74
2019-10-10 06:00:00 18.4 13 Oeste 20 Oeste 0 -- -- 72
2019-10-10 05:00:00 18.6 14 Oeste 19 Oeste 0 -- -- 75
2019-10-10 04:00:00 18.9 8 Noroeste 19 Oeste 0 -- -- 76
2019-10-10 03:00:00 18.5 13 Oeste 20 Oeste 0 -- -- 73
2019-10-10 02:00:00 18.9 12 Oeste 21 Oeste 0 -- -- 74
2019-10-10 01:00:00 19.5 10 Noroeste 21 Noroeste 0 -- -- 75
2019-10-10 00:00:00 19.4 12 Oeste 29 Oeste 0 -- -- 71
2019-10-09 23:00:00 19.4 13 Oeste 27 Oeste 0 -- -- 73
2019-10-09 22:00:00 19.4 11 Oeste 26 Noroeste 0 -- -- 73
2019-10-09 21:00:00 19.4 12 Noroeste 29 Oeste 0 -- -- 73
2019-10-09 20:00:00 19.7 15 Noroeste 32 Noroeste 0 -- -- 74
2019-10-09 19:00:00 21 19 Norte 34 Norte 0 -- -- 69
2019-10-09 18:00:00 22.5 15 Norte 31 Norte 0 -- -- 66
2019-10-09 17:00:00 23.7 14 Norte 34 Norte 0 -- -- 60
2019-10-09 16:00:00 24.1 17 Norte 30 Noroeste 0 -- -- 59
2019-10-09 15:00:00 24.7 14 Norte 30 Norte 0 -- -- 57
2019-10-09 14:00:00 23.9 18 Norte 31 Nordeste 0 -- -- 60
2019-10-09 13:00:00 23.6 18 Norte 35 Norte 0 -- -- 61
2019-10-09 12:00:00 22.8 16 Norte 42 Noroeste 0 -- -- 64
2019-10-09 11:00:00 21.8 18 Norte 34 Noroeste 0 -- -- 67
2019-10-09 10:00:00 20 22 Noroeste 38 Noroeste 0 -- -- 73
2019-10-09 09:00:00 18.4 8 Noroeste 25 Norte 0 -- -- 79
2019-10-09 08:00:00 18 13 Noroeste 33 Noroeste 0 -- -- 80
2019-10-09 07:00:00 18.1 14 Oeste 32 Noroeste 0 -- -- 80
2019-10-09 06:00:00 18.3 14 Oeste 33 Noroeste 0 -- -- 79
2019-10-09 05:00:00 18.3 14 Noroeste 32 Noroeste 0 -- -- 80
2019-10-09 04:00:00 18.3 12 Noroeste 38 Noroeste 0 -- -- 79
2019-10-09 03:00:00 18.6 18 Noroeste 36 Noroeste 0 -- -- 77
2019-10-09 02:00:00 18.5 15 Norte 33 Noroeste 0 -- -- 79
2019-10-09 01:00:00 18.6 12 Noroeste 26 Noroeste 0 -- -- 78
2019-10-09 00:00:00 19.2 11 Noroeste 28 Norte 0 -- -- 73
2019-10-08 23:00:00 19.6 16 Norte 24 Norte 0 -- -- 62
2019-10-08 22:00:00 19.3 19 Noroeste 30 Norte 0 -- -- 73
2019-10-08 21:00:00 19.5 15 Norte 22 Norte 0 -- -- 77
2019-10-08 20:00:00 20.6 14 Norte 21 Norte 0 -- -- 72
2019-10-08 19:00:00 22.3 13 Norte 23 Norte 0 -- -- 66
2019-10-08 18:00:00 23.5 14 Noroeste 30 Norte 0 -- -- 65
2019-10-08 17:00:00 24.1 17 Norte 31 Norte 0 -- -- 64
2019-10-08 16:00:00 24.6 13 Norte 32 Norte 0 -- -- 63
2019-10-08 15:00:00 24.2 11 Norte 28 Nordeste 0 -- -- 65
2019-10-08 14:00:00 24.3 10 Norte 25 Noroeste 0 -- -- 63
2019-10-08 13:00:00 24.2 17 Norte 32 Norte 0 -- -- 65
2019-10-08 12:00:00 22.8 21 Norte 33 Norte 0 -- -- 68
2019-10-08 11:00:00 21.5 18 Norte 33 Noroeste 0 -- -- 75
2019-10-08 10:00:00 19.7 10 Noroeste 25 Oeste 0 -- -- 81
2019-10-08 09:00:00 18.8 11 Noroeste 27 Oeste 0 -- -- 84
2019-10-08 08:00:00 18.4 15 Noroeste 26 Oeste 0 -- -- 85
2019-10-08 07:00:00 18.4 10 Noroeste 22 Oeste 0 -- -- 85
2019-10-08 06:00:00 17.8 8 Norte 26 Noroeste 0 -- -- 87
2019-10-08 05:00:00 17.8 4 Oeste 23 Noroeste 0 -- -- 83
2019-10-08 04:00:00 18.7 12 Oeste 22 Noroeste 0 -- -- 85
2019-10-08 03:00:00 18.3 8 Oeste 13 Noroeste 0 -- -- 86
2019-10-08 02:00:00 18.6 5 Noroeste 24 Oeste 0 -- -- 84
2019-10-08 01:00:00 19.1 14 Noroeste 30 Norte 0 -- -- 83
2019-10-08 00:00:00 19.1 17 Noroeste 28 Norte 0 -- -- 82
2019-10-07 23:00:00 19.3 13 Noroeste 35 Noroeste 0 -- -- 83
2019-10-07 22:00:00 19.4 13 Noroeste 33 Norte 0 -- -- 82
2019-10-07 21:00:00 19.8 18 Noroeste 37 Noroeste 0 -- -- 81
2019-10-07 20:00:00 20.1 17 Noroeste 32 Norte 0 -- -- 80
2019-10-07 19:00:00 21.5 17 Norte 32 Norte 0 -- -- 76
2019-10-07 18:00:00 23.3 20 Norte 31 Noroeste 0 -- -- 69
2019-10-07 17:00:00 24.7 14 Norte 25 Este 0 -- -- 65
2019-10-07 16:00:00 24.3 11 Este 22 Nordeste 0 -- -- 67
2019-10-07 15:00:00 24.4 9 Nordeste 32 Este 0 -- -- 64
2019-10-07 14:00:00 23.2 14 Nordeste 24 Nordeste 0 -- -- 68
2019-10-07 13:00:00 23.2 13 Este 25 Nordeste 0 -- -- 68
2019-10-07 12:00:00 23.1 12 Nordeste 21 Nordeste 0 -- -- 68
2019-10-07 11:00:00 22.4 9 Norte 21 Noroeste 0 -- -- 69
2019-10-07 10:00:00 20.3 14 Noroeste 27 Oeste 0 -- -- 77
2019-10-07 09:00:00 19.1 10 Oeste 24 Oeste 0 -- -- 80
2019-10-07 08:00:00 18.8 8 Norte 26 Noroeste 0 -- -- 81
2019-10-07 07:00:00 19 13 Noroeste 27 Oeste 0 -- -- 80
2019-10-07 06:00:00 19 13 Oeste 27 Noroeste 0 -- -- 80
2019-10-07 05:00:00 19 13 Noroeste 27 Noroeste 0 -- -- 80
2019-10-07 04:00:00 19 13 Noroeste 35 Noroeste 0 -- -- 80
2019-10-07 03:00:00 19.2 10 Noroeste 29 Noroeste 0 -- -- 80
2019-10-07 02:00:00 19.2 10 Noroeste 32 Noroeste 0 -- -- 80
2019-10-07 01:00:00 19.3 13 Noroeste 33 Noroeste 0 -- -- 78
2019-10-07 00:00:00 19.5 13 Noroeste 32 Noroeste 0 -- -- 77
2019-10-06 23:00:00 19.7 13 Noroeste 32 Noroeste 0 -- -- 77
2019-10-06 22:00:00 19.7 17 Noroeste 33 Noroeste 0 -- -- 76
2019-10-06 21:00:00 20 16 Noroeste 31 Noroeste 0 -- -- 76
2019-10-06 20:00:00 20.3 12 Noroeste 28 Norte 0 -- -- 77
2019-10-06 19:00:00 20.8 19 Noroeste 31 Noroeste 0 -- -- 72
2019-10-06 18:00:00 22.4 18 Noroeste 33 Noroeste 0 -- -- 68
2019-10-06 17:00:00 23.3 21 Norte 34 Norte 0 -- -- 64
2019-10-06 16:00:00 23.5 18 Norte 36 Nordeste 0 -- -- 66
2019-10-06 15:00:00 24 20 Norte 34 Noroeste 0 -- -- 61
2019-10-06 14:00:00 23.6 15 Norte 37 Noroeste 0 -- -- 66
2019-10-06 13:00:00 23.9 20 Norte 32 Norte 0 -- -- 63
2019-10-06 12:00:00 22.8 19 Noroeste 33 Noroeste 0 -- -- 65
2019-10-06 11:00:00 21.1 20 Noroeste 32 Noroeste 0 -- -- 72
2019-10-06 10:00:00 20.5 15 Noroeste 37 Noroeste 0 -- -- 73
2019-10-06 09:00:00 19.9 16 Noroeste 30 Noroeste 0 -- -- 76
2019-10-06 08:00:00 19.6 14 Noroeste 30 Noroeste 0 -- -- 79
2019-10-06 07:00:00 19.6 17 Noroeste 31 Noroeste 0 -- -- 79
2019-10-06 06:00:00 19.6 16 Noroeste 34 Oeste 0 -- -- 80
2019-10-06 05:00:00 20 14 Noroeste 34 Noroeste 0 -- -- 77
2019-10-06 04:00:00 19.9 12 Noroeste 32 Noroeste 0 -- -- 79
2019-10-06 03:00:00 19.9 21 Noroeste 36 Noroeste 0 -- -- 81
2019-10-06 02:00:00 20.2 17 Noroeste 32 Noroeste 0 -- -- 77
2019-10-06 01:00:00 20 20 Noroeste 40 Noroeste 0 -- -- 76
2019-10-06 00:00:00 19.7 23 Noroeste 40 Noroeste 0 -- -- 80
2019-10-05 23:00:00 20 18 Noroeste 39 Oeste 0 -- -- 77
2019-10-05 22:00:00 20.2 23 Noroeste 43 Noroeste 0 -- -- 74
2019-10-05 21:00:00 20.4 23 Noroeste 43 Noroeste 0 -- -- 74
2019-10-05 20:00:00 20.8 19 Noroeste 40 Norte 0 -- -- 75
2019-10-05 19:00:00 22 21 Noroeste 39 Noroeste 0 -- -- 69
2019-10-05 18:00:00 23.8 18 Noroeste 45 Noroeste 0 -- -- 64
2019-10-05 17:00:00 24.4 24 Noroeste 39 Noroeste 0 -- -- 63
2019-10-05 16:00:00 24.2 24 Noroeste 42 Norte 0 -- -- 65
2019-10-05 15:00:00 24.9 24 Norte 42 Noroeste 0 -- -- 61
2019-10-05 14:00:00 24.9 26 Norte 40 Noroeste 0 -- -- 61
2019-10-05 13:00:00 24.5 23 Norte 38 Noroeste 0 -- -- 65
2019-10-05 12:00:00 23.6 19 Noroeste 38 Noroeste 0 -- -- 67
2019-10-05 11:00:00 22.5 19 Noroeste 39 Oeste 0 -- -- 73
2019-10-05 10:00:00 21.6 24 Norte 39 Norte 0 -- -- 76
2019-10-05 09:00:00 21.2 21 Noroeste 44 Oeste 0 -- -- 76
2019-10-05 08:00:00 20.8 17 Oeste 40 Noroeste 0 -- -- 72
2019-10-05 07:00:00 20.5 18 Noroeste 33 Noroeste 0 -- -- 76
2019-10-05 06:00:00 20.2 18 Noroeste 39 Noroeste 0 -- -- 76
2019-10-05 05:00:00 20.1 17 Noroeste 40 Noroeste 0 -- -- 75
2019-10-05 04:00:00 19.9 18 Oeste 33 Noroeste 0 -- -- 74
2019-10-05 03:00:00 19.8 17 Noroeste 39 Noroeste 0 -- -- 75
2019-10-05 02:00:00 19.8 20 Noroeste 41 Noroeste 0 -- -- 75
2019-10-05 01:00:00 20 23 Noroeste 48 Noroeste 0 -- -- 73
2019-10-05 00:00:00 20.4 22 Noroeste 35 Noroeste 0 -- -- 68
2019-10-04 23:00:00 21 16 Norte 40 Noroeste 0 -- -- 57
2019-10-04 22:00:00 20.7 22 Norte 31 Norte 0 -- -- 66
2019-10-04 21:00:00 21.1 21 Norte 30 Norte 0 -- -- 62
2019-10-04 20:00:00 21.3 14 Noroeste 34 Norte 0 -- -- 67
2019-10-04 19:00:00 22.6 25 Norte 35 Norte 0 -- -- 68
2019-10-04 18:00:00 24.5 19 Noroeste 34 Noroeste 0 -- -- 61
2019-10-04 17:00:00 24.9 22 Norte 39 Norte 0 -- -- 60
2019-10-04 16:00:00 27.2 20 Norte 35 Norte 0 -- -- 53
2019-10-04 15:00:00 25.8 20 Norte 37 Norte 0 -- -- 57
2019-10-04 14:00:00 26.9 16 Norte 35 Norte 0 -- -- 53
2019-10-04 13:00:00 25.9 18 Norte 36 Norte 0 -- -- 54
2019-10-04 12:00:00 26.1 17 Norte 33 Noroeste 0 -- -- 53
2019-10-04 11:00:00 23.9 15 Noroeste 40 Noroeste 0 -- -- 60
2019-10-04 10:00:00 21.7 20 Noroeste 43 Norte 0 -- -- 71
2019-10-04 09:00:00 21.2 27 Noroeste 47 Norte 0 -- -- 71
2019-10-04 08:00:00 22.1 23 Noroeste 42 Noroeste 0 -- -- 59
2019-10-04 07:00:00 22.7 19 Noroeste 37 Noroeste 0 -- -- 54
2019-10-04 06:00:00 22.8 19 Noroeste 42 Noroeste 0 -- -- 53
2019-10-04 05:00:00 22.9 20 Noroeste 39 Noroeste 0 -- -- 50
2019-10-04 04:00:00 23.8 17 Noroeste 35 Noroeste 0 -- -- 45
2019-10-04 03:00:00 24.6 17 Noroeste 35 Noroeste 0 -- -- 41
2019-10-04 02:00:00 25.3 16 Noroeste 35 Oeste 0 -- -- 39
2019-10-04 01:00:00 25 14 Noroeste 39 Norte 0 -- -- 40
2019-10-04 00:00:00 24.4 15 Noroeste 35 Noroeste 0 -- -- 43
2019-10-03 23:00:00 24.1 15 Noroeste 32 Noroeste 0 -- -- 45
2019-10-03 22:00:00 25.2 12 Noroeste 29 Noroeste 0 -- -- 38
2019-10-03 21:00:00 23.5 18 Noroeste 30 Oeste 0 -- -- 54
2019-10-03 20:00:00 23.1 13 Noroeste 29 Noroeste 0 -- -- 59
2019-10-03 19:00:00 24.6 18 Norte 35 Norte 0 -- -- 62
2019-10-03 18:00:00 28.1 15 Norte 30 Norte 0 -- -- 46
2019-10-03 17:00:00 29.5 18 Norte 32 Nordeste 0 -- -- 38
2019-10-03 16:00:00 29.9 17 Norte 32 Noroeste 0 -- -- 38
2019-10-03 15:00:00 28.5 16 Norte 25 Nordeste 0 -- -- 50
2019-10-03 14:00:00 27.6 13 Nordeste 26 Nordeste 0 -- -- 55
2019-10-03 13:00:00 30.3 14 Norte 28 Norte 0 -- -- 35
2019-10-03 12:00:00 29.7 16 Noroeste 30 Noroeste 0 -- -- 31
2019-10-03 11:00:00 28.4 15 Norte 26 Noroeste 0 -- -- 36
2019-10-03 10:00:00 27.5 17 Norte 24 Norte 0 -- -- 37
2019-10-03 09:00:00 24.6 11 Norte 18 Noroeste 0 -- -- 44
2019-10-03 08:00:00 22.3 5 Noroeste 17 Noroeste 0 -- -- 47
2019-10-03 07:00:00 23 9 Noroeste 18 Noroeste 0 -- -- 47
2019-10-03 06:00:00 23.2 12 Norte 18 Noroeste 0 -- -- 44
2019-10-03 05:00:00 22.9 13 Oeste 19 Oeste 0 -- -- 29
2019-10-03 04:00:00 22.7 6 Oeste 18 Oeste 0 -- -- 34
2019-10-03 03:00:00 22.8 13 Oeste 19 Oeste 0 -- -- 35
2019-10-03 02:00:00 22.8 8 Noroeste 19 Noroeste 0 -- -- 49
2019-10-03 01:00:00 21.6 9 Oeste 13 Oeste 0 -- -- 45
2019-10-03 00:00:00 23.8 5 Sudoeste 15 Oeste 0 -- -- 44
2019-10-02 23:00:00 22.5 0 Calma 8 Sudoeste 0 -- -- 49
2019-10-02 22:00:00 22.9 4 Sudeste 7 Sudeste 0 -- -- 51
2019-10-02 21:00:00 23.9 6 Sudeste 9 Sudeste 0 -- -- 51
2019-10-02 20:00:00 24.6 3 Sudoeste 9 Este 0 -- -- 57
2019-10-02 19:00:00 26.7 4 Este 13 Sudeste 0 -- -- 52
2019-10-02 18:00:00 26.8 8 Este 15 Este 0 -- -- 55
2019-10-02 17:00:00 27.2 8 Este 14 Este 0 -- -- 58
2019-10-02 16:00:00 29.2 9 Este 15 Este 0 -- -- 55
2019-10-02 15:00:00 30.3 10 Este 15 Este 0 -- -- 50
2019-10-02 14:00:00 31.7 10 Este 18 Este 0 -- -- 42
2019-10-02 13:00:00 33.9 11 Este 19 Este 0 -- -- 22
2019-10-02 12:00:00 32.6 9 Este 20 Este 0 -- -- 27
2019-10-02 11:00:00 33.3 5 Noroeste 14 Noroeste 0 -- -- 13
2019-10-02 10:00:00 30.5 11 Noroeste 20 Noroeste 0 -- -- 15
2019-10-02 09:00:00 26.7 9 Oeste 19 Sudoeste 0 -- -- 23
2019-10-02 08:00:00 25.2 15 Oeste 23 Oeste 0 -- -- 24
2019-10-02 07:00:00 24.6 15 Oeste 22 Oeste 0 -- -- 25
2019-10-02 06:00:00 24.1 12 Oeste 25 Noroeste 0 -- -- 27
2019-10-02 05:00:00 25.3 10 Oeste 16 Oeste 0 -- -- 27
2019-10-02 04:00:00 26.5 15 Noroeste 32 Noroeste 0 -- -- 28
2019-10-02 03:00:00 23.5 9 Oeste 16 Noroeste 0 -- -- 32
2019-10-02 02:00:00 22.1 8 Oeste 13 Oeste 0 -- -- 37
2019-10-02 01:00:00 22.6 2 Sudoeste 10 Oeste 0 -- -- 39
2019-10-02 00:00:00 22.7 5 Sudoeste 15 Oeste 0 -- -- 58
2019-10-01 23:00:00 25.9 9 Oeste 18 Oeste 0 -- -- 29
2019-10-01 22:00:00 26 14 Oeste 18 Oeste 0 -- -- 34
2019-10-01 21:00:00 26.1 5 Sudoeste 10 Oeste 0 -- -- 40
2019-10-01 20:00:00 25.1 3 Oeste 10 Este 0 -- -- 62
2019-10-01 19:00:00 27.5 0 Calma 15 Nordeste 0 -- -- 54
2019-10-01 18:00:00 30.9 8 Norte 16 Norte 0 -- -- 32
2019-10-01 17:00:00 28.9 13 Este 23 Nordeste 0 -- -- 50
2019-10-01 16:00:00 31.5 13 Norte 23 Norte 0 -- -- 31
2019-10-01 15:00:00 30.9 12 Norte 27 Norte 0 -- -- 35
2019-10-01 14:00:00 31 11 Norte 23 Norte 0 -- -- 37
2019-10-01 13:00:00 29.8 9 Nordeste 20 Nordeste 0 -- -- 42
2019-10-01 12:00:00 27.5 11 Sudeste 19 Este 0 -- -- 59
2019-10-01 11:00:00 28.1 10 Este 15 Este 0 -- -- 52
2019-10-01 10:00:00 28.5 4 Sudoeste 19 Oeste 0 -- -- 30
2019-10-01 09:00:00 28.2 15 Oeste 23 Oeste 0 -- -- 22
2019-10-01 08:00:00 25.5 13 Oeste 22 Oeste 0 -- -- 25
2019-10-01 07:00:00 24.9 10 Sudoeste 22 Oeste 0 -- -- 26
2019-10-01 06:00:00 24.2 8 Sudoeste 19 Sudoeste 0 -- -- 26
2019-10-01 05:00:00 25.1 15 Oeste 23 Oeste 0 -- -- 24
2019-10-01 04:00:00 24.9 13 Oeste 21 Oeste 0 -- -- 23
2019-10-01 03:00:00 25 12 Oeste 23 Oeste 0 -- -- 24
2019-10-01 02:00:00 25.1 13 Oeste 21 Oeste 0 -- -- 27
2019-10-01 01:00:00 25.2 14 Oeste 22 Oeste 0 -- -- 30
2019-10-01 00:00:00 24.6 9 Oeste 19 Oeste 0 -- -- 32
2019-09-30 23:00:00 26.6 6 Oeste 22 Noroeste 0 -- -- 29
2019-09-30 22:00:00 26.9 9 Noroeste 19 Noroeste 0 -- -- 26
2019-09-30 21:00:00 24.8 11 Oeste 23 Noroeste 0 -- -- 37
2019-09-30 20:00:00 27.6 16 Norte 27 Norte 0 -- -- 33
2019-09-30 19:00:00 29.1 13 Norte 27 Norte 0 -- -- 42
2019-09-30 18:00:00 30.3 17 Norte 29 Norte 0 -- -- 37
2019-09-30 17:00:00 30 15 Noroeste 30 Noroeste 0 -- -- 41
2019-09-30 16:00:00 31.5 10 Norte 20 Este 0 -- -- 33
2019-09-30 15:00:00 30.6 12 Este 20 Este 0 -- -- 45
2019-09-30 14:00:00 28.8 14 Sudeste 21 Este 0 -- -- 54
2019-09-30 13:00:00 29.6 12 Este 18 Sudeste 0 -- -- 51
2019-09-30 12:00:00 29.4 13 Sudeste 19 Este 0 -- -- 50
2019-09-30 11:00:00 29.7 8 Este 12 Este 0 -- -- 45
2019-09-30 10:00:00 29.2 7 Norte 15 Oeste 0 -- -- 25
2019-09-30 09:00:00 25.2 8 Oeste 17 Oeste 0 -- -- 28
2019-09-30 08:00:00 24.2 11 Oeste 17 Oeste 0 -- -- 28
2019-09-30 07:00:00 24.1 12 Oeste 17 Sudoeste 0 -- -- 29
2019-09-30 06:00:00 24.3 12 Oeste 18 Sudoeste 0 -- -- 28
2019-09-30 05:00:00 24.3 13 Oeste 23 Oeste 0 -- -- 28
2019-09-30 04:00:00 23.2 8 Sudoeste 25 Oeste 0 -- -- 32
2019-09-30 03:00:00 23.6 10 Oeste 16 Sudoeste 0 -- -- 31
2019-09-30 02:00:00 23.4 18 Oeste 22 Oeste 0 -- -- 32
2019-09-30 01:00:00 19.4 5 Sudeste 8 Sudeste 0 -- -- 72
2019-09-30 00:00:00 19.6 3 Este 10 Oeste 0 -- -- 73
2019-09-29 23:00:00 20 8 Oeste 13 Oeste 0 -- -- 78
2019-09-29 22:00:00 20.5 0 Calma 8 Oeste 0 -- -- 82
2019-09-29 21:00:00 21.4 3 Oeste 6 Este 0 -- -- 80
2019-09-29 20:00:00 22.7 4 Sudeste 12 Este 0 -- -- 76
2019-09-29 19:00:00 24.1 6 Sudeste 13 Sudeste 0 -- -- 72
2019-09-29 18:00:00 25.8 8 Este 14 Este 0 -- -- 66
2019-09-29 17:00:00 25.2 14 Este 20 Sudeste 0 -- -- 69
2019-09-29 16:00:00 25.6 14 Este 19 Sudeste 0 -- -- 67
2019-09-29 15:00:00 25.2 14 Este 22 Este 0 -- -- 67
2019-09-29 14:00:00 25.4 12 Sudeste 25 Sudeste 0 -- -- 67
2019-09-29 13:00:00 25.9 6 Este 18 Nordeste 0 -- -- 64
2019-09-29 12:00:00 24.6 10 Este 21 Este 0 -- -- 68
2019-09-29 11:00:00 24.1 8 Norte 17 Norte 0 -- -- 66
2019-09-29 10:00:00 21 11 Noroeste 24 Oeste 0 -- -- 78
2019-09-29 09:00:00 18.6 7 Noroeste 24 Noroeste 0 -- -- 85
2019-09-29 08:00:00 18.4 13 Oeste 27 Noroeste 0 -- -- 86
2019-09-29 07:00:00 18.7 9 Noroeste 29 Noroeste 0 -- -- 86
2019-09-29 06:00:00 18.8 12 Noroeste 33 Noroeste 0 -- -- 87
2019-09-29 05:00:00 18.7 13 Noroeste 27 Norte 0 -- -- 88
2019-09-29 04:00:00 18.5 7 Noroeste 26 Noroeste 0 -- -- 87
2019-09-29 03:00:00 17.8 3 Sur 15 Oeste 0 -- -- 84
2019-09-29 02:00:00 18.5 5 Oeste 22 Oeste 0 -- -- 83
2019-09-29 01:00:00 18.8 6 Oeste 18 Noroeste 0 -- -- 84
2019-09-29 00:00:00 19.1 4 Oeste 16 Noroeste 0 -- -- 82
2019-09-28 23:00:00 19.4 3 Sur 17 Noroeste 0 -- -- 80
2019-09-28 22:00:00 19.7 10 Norte 17 Noroeste 0 -- -- 80
2019-09-28 21:00:00 20.3 8 Noroeste 25 Noroeste 0 -- -- 79
2019-09-28 20:00:00 20.6 17 Norte 30 Noroeste 0 -- -- 80
2019-09-28 19:00:00 21.9 17 Noroeste 27 Noroeste 0 -- -- 74
2019-09-28 18:00:00 23.3 15 Norte 27 Norte 0 -- -- 68
2019-09-28 17:00:00 24.1 15 Norte 28 Nordeste 0 -- -- 65
2019-09-28 16:00:00 23.7 16 Nordeste 32 Nordeste 0 -- -- 68
2019-09-28 15:00:00 24.1 14 Nordeste 32 Nordeste 0 -- -- 66
2019-09-28 14:00:00 23.8 16 Nordeste 27 Norte 0 -- -- 66
2019-09-28 13:00:00 23.8 12 Norte 28 Nordeste 0 -- -- 66
2019-09-28 12:00:00 22.5 13 Noroeste 28 Norte 0 -- -- 72
2019-09-28 11:00:00 21.5 14 Noroeste 26 Oeste 0 -- -- 74
2019-09-28 10:00:00 20.4 9 Noroeste 25 Norte 0 -- -- 78
2019-09-28 09:00:00 19.8 14 Norte 26 Noroeste 0 -- -- 82
2019-09-28 08:00:00 19.1 13 Noroeste 30 Noroeste 0 -- -- 83
2019-09-28 07:00:00 18.7 12 Noroeste 27 Noroeste 0 -- -- 82
2019-09-28 06:00:00 19 16 Noroeste 31 Noroeste 0 -- -- 80
2019-09-28 05:00:00 19.2 11 Noroeste 26 Noroeste 0 -- -- 82
2019-09-28 04:00:00 19.4 9 Noroeste 28 Noroeste 0 -- -- 82
2019-09-28 03:00:00 19.5 17 Noroeste 27 Oeste 0 -- -- 82
2019-09-28 02:00:00 19.6 12 Noroeste 26 Noroeste 0 -- -- 81
2019-09-28 01:00:00 19.7 10 Noroeste 28 Noroeste 0 -- -- 80
2019-09-28 00:00:00 19.7 11 Noroeste 30 Noroeste 0 -- -- 82
2019-09-27 23:00:00 19.7 11 Noroeste 24 Noroeste 0 -- -- 81
2019-09-27 22:00:00 19.5 12 Noroeste 27 Oeste 0 -- -- 79
2019-09-27 21:00:00 19.9 15 Noroeste 31 Norte 0 -- -- 79
2019-09-27 20:00:00 20.3 18 Norte 32 Norte 0 -- -- 79
2019-09-27 19:00:00 21.4 19 Noroeste 39 Noroeste 0 -- -- 72
2019-09-27 18:00:00 22.8 23 Norte 36 Noroeste 0 -- -- 67
2019-09-27 17:00:00 23.9 21 Noroeste 35 Norte 0 -- -- 64
2019-09-27 16:00:00 24.5 25 Norte 36 Norte 0 -- -- 63
2019-09-27 15:00:00 25 19 Norte 36 Norte 0 -- -- 61
2019-09-27 14:00:00 24.6 17 Norte 35 Norte 0 -- -- 63
2019-09-27 13:00:00 24.1 18 Noroeste 35 Noroeste 0 -- -- 65
2019-09-27 12:00:00 23.5 19 Noroeste 30 Noroeste 0 -- -- 67
2019-09-27 11:00:00 22.4 17 Noroeste 29 Norte 0 -- -- 69
2019-09-27 10:00:00 20.6 13 Noroeste 27 Noroeste 0 -- -- 78
2019-09-27 09:00:00 20.1 13 Noroeste 26 Noroeste 0 -- -- 79
2019-09-27 08:00:00 19.7 10 Noroeste 31 Noroeste 0 -- -- 81
2019-09-27 07:00:00 19.9 14 Noroeste 31 Oeste 0 -- -- 80
2019-09-27 06:00:00 19.8 12 Oeste 28 Noroeste 0 -- -- 77
2019-09-27 05:00:00 19.8 13 Noroeste 32 Noroeste 0 -- -- 78
2019-09-27 04:00:00 19.9 15 Noroeste 35 Noroeste 0 -- -- 81
2019-09-27 03:00:00 20 16 Norte 26 Noroeste 0 -- -- 80
2019-09-27 02:00:00 20 10 Noroeste 24 Norte 0 -- -- 80
2019-09-27 01:00:00 20.1 17 Oeste 28 Oeste 0 -- -- 78
2019-09-27 00:00:00 20.1 14 Noroeste 33 Noroeste 0 -- -- 79
2019-09-26 23:00:00 20.2 14 Noroeste 28 Noroeste 0 -- -- 79
2019-09-26 22:00:00 20.3 10 Noroeste 30 Noroeste 0 -- -- 77
2019-09-26 21:00:00 20.1 15 Noroeste 28 Noroeste 0 -- -- 77
2019-09-26 20:00:00 20.3 20 Noroeste 35 Noroeste 0 -- -- 76
2019-09-26 19:00:00 21.7 19 Noroeste 33 Noroeste 0 -- -- 71
2019-09-26 18:00:00 23 19 Norte 32 Noroeste 0 -- -- 68
2019-09-26 17:00:00 24.4 22 Norte 34 Norte 0 -- -- 67
2019-09-26 16:00:00 25.1 10 Norte 28 Nordeste 0 -- -- 63
2019-09-26 15:00:00 24.7 17 Norte 31 Norte 0 -- -- 61
2019-09-26 14:00:00 24.4 18 Noroeste 33 Nordeste 0 -- -- 66
2019-09-26 13:00:00 24.5 22 Norte 34 Norte 0 -- -- 65
2019-09-26 12:00:00 22.3 14 Noroeste 28 Noroeste 0 -- -- 71
2019-09-26 11:00:00 22.6 19 Norte 32 Noroeste 0 -- -- 67
2019-09-26 10:00:00 20.8 15 Noroeste 28 Noroeste 0 -- -- 78
2019-09-26 09:00:00 20.4 12 Noroeste 28 Noroeste 0 -- -- 78
2019-09-26 08:00:00 19.9 17 Noroeste 32 Oeste 0 -- -- 80
2019-09-26 07:00:00 19.7 14 Noroeste 30 Noroeste 0 -- -- 81
2019-09-26 06:00:00 19.8 14 Noroeste 28 Noroeste 0 -- -- 80
2019-09-26 05:00:00 19.8 11 Noroeste 26 Oeste 0 -- -- 78
2019-09-26 04:00:00 19.5 12 Oeste 29 Noroeste 0 -- -- 79
2019-09-26 03:00:00 19.5 17 Noroeste 28 Noroeste 0 -- -- 80
2019-09-26 02:00:00 19.6 12 Noroeste 30 Oeste 0 -- -- 78
2019-09-26 01:00:00 19.8 13 Noroeste 28 Noroeste 0 -- -- 79
2019-09-26 00:00:00 19.8 12 Noroeste 32 Noroeste 0 -- -- 77
2019-09-25 23:00:00 20 19 Noroeste 30 Noroeste 0 -- -- 80
2019-09-25 22:00:00 20.1 12 Noroeste 34 Noroeste 0 -- -- 79
2019-09-25 21:00:00 20.3 18 Noroeste 33 Oeste 0 -- -- 77
2019-09-25 20:00:00 20.5 17 Noroeste 31 Norte 0 -- -- 77
2019-09-25 19:00:00 22.2 21 Norte 35 Norte 0 -- -- 70
2019-09-25 18:00:00 23.1 24 Norte 36 Norte 0 -- -- 66
2019-09-25 17:00:00 24.5 23 Norte 36 Noroeste 0 -- -- 61
2019-09-25 16:00:00 24.9 18 Norte 34 Noroeste 0 -- -- 59
2019-09-25 15:00:00 25 18 Norte 37 Norte 0 -- -- 60
2019-09-25 14:00:00 24.9 19 Norte 37 Norte 0 -- -- 60
2019-09-25 13:00:00 25.2 16 Norte 34 Norte 0 -- -- 57
2019-09-25 12:00:00 24.5 21 Norte 33 Noroeste 0 -- -- 58
2019-09-25 11:00:00 22.6 18 Noroeste 41 Noroeste 0 -- -- 65
2019-09-25 10:00:00 21.1 19 Noroeste 37 Noroeste 0 -- -- 70
2019-09-25 09:00:00 20.1 16 Noroeste 33 Noroeste 0 -- -- 73
2019-09-25 08:00:00 19.1 15 Noroeste 33 Noroeste 0 -- -- 75
2019-09-25 07:00:00 19 18 Oeste 31 Oeste 0 -- -- 75
2019-09-25 06:00:00 19 17 Noroeste 36 Noroeste 0 -- -- 76
2019-09-25 05:00:00 18.9 21 Noroeste 34 Noroeste 0 -- -- 77
2019-09-25 04:00:00 18.9 15 Noroeste 35 Noroeste 0 -- -- 77
2019-09-25 03:00:00 19.1 22 Noroeste 39 Noroeste 0 -- -- 76
2019-09-25 02:00:00 19.2 13 Oeste 33 Noroeste 0 -- -- 77
2019-09-25 01:00:00 19 14 Noroeste 35 Noroeste 0 -- -- 77
2019-09-25 00:00:00 19.1 16 Noroeste 41 Oeste 0 -- -- 78
2019-09-24 23:00:00 19.1 21 Noroeste 37 Noroeste 0 -- -- 77
2019-09-24 22:00:00 19.1 16 Noroeste 35 Noroeste 0 -- -- 77
2019-09-24 21:00:00 19.4 17 Noroeste 39 Norte 0 -- -- 76
2019-09-24 20:00:00 19.8 20 Noroeste 36 Noroeste 0 -- -- 74
2019-09-24 19:00:00 21.6 19 Noroeste 38 Norte 0 -- -- 69
2019-09-24 18:00:00 22.5 22 Norte 40 Norte 0 -- -- 66
2019-09-24 17:00:00 23 24 Norte 42 Noroeste 0 -- -- 64
2019-09-24 16:00:00 23.7 26 Norte 38 Norte 0 -- -- 62
2019-09-24 15:00:00 23.9 22 Noroeste 39 Norte 0 -- -- 61
2019-09-24 14:00:00 23.9 19 Norte 37 Norte 0 -- -- 62
2019-09-24 13:00:00 23.2 26 Noroeste 42 Noroeste 0 -- -- 63
2019-09-24 12:00:00 22.1 20 Noroeste 36 Noroeste 0 -- -- 69
2019-09-24 11:00:00 21.5 15 Noroeste 33 Noroeste 0 -- -- 71
2019-09-24 10:00:00 19.9 15 Noroeste 31 Noroeste 0 -- -- 79
2019-09-24 09:00:00 19.7 12 Noroeste 30 Oeste 0 -- -- 78
2019-09-24 08:00:00 19.3 15 Noroeste 25 Oeste 0 -- -- 80
2019-09-24 07:00:00 19.3 13 Noroeste 28 Noroeste 0 -- -- 85
2019-09-24 06:00:00 19.4 13 Noroeste 22 Noroeste 0 -- -- 80
2019-09-24 05:00:00 19.5 14 Oeste 27 Oeste 0 -- -- 74
2019-09-24 04:00:00 19.3 12 Noroeste 27 Noroeste 0 -- -- 80
2019-09-24 03:00:00 19.4 12 Noroeste 23 Noroeste 0 -- -- 79
2019-09-24 02:00:00 19.1 10 Noroeste 28 Noroeste 0 -- -- 79
2019-09-24 01:00:00 19.3 16 Noroeste 27 Noroeste 0 -- -- 79
2019-09-24 00:00:00 19.6 14 Noroeste 31 Noroeste 0 -- -- 75
2019-09-23 23:00:00 19.7 13 Noroeste 26 Noroeste 0 -- -- 76
2019-09-23 22:00:00 19.8 18 Noroeste 29 Noroeste 0 -- -- 79
2019-09-23 21:00:00 20.1 13 Noroeste 29 Noroeste 0 -- -- 77
2019-09-23 20:00:00 20.3 13 Noroeste 31 Noroeste 0 -- -- 76
2019-09-23 19:00:00 21.7 14 Noroeste 33 Noroeste 0 -- -- 69
2019-09-23 18:00:00 22.4 18 Norte 36 Noroeste 0 -- -- 64
2019-09-23 17:00:00 23.6 27 Norte 37 Norte 0 -- -- 61
2019-09-23 16:00:00 24 24 Norte 39 Noroeste 0 -- -- 58
2019-09-23 15:00:00 23.5 18 Noroeste 39 Noroeste 0 -- -- 66
2019-09-23 14:00:00 24.8 14 Norte 31 Norte 0 -- -- 57
2019-09-23 13:00:00 22.9 15 Norte 31 Norte 0 -- -- 66
2019-09-23 12:00:00 21.7 17 Noroeste 30 Noroeste 0 -- -- 68
2019-09-23 11:00:00 21.7 20 Norte 29 Noroeste 0 -- -- 72
2019-09-23 10:00:00 20.2 14 Norte 31 Oeste 0 -- -- 80
2019-09-23 09:00:00 20.1 12 Noroeste 26 Noroeste 0 -- -- 80
2019-09-23 08:00:00 19.2 12 Noroeste 31 Noroeste 0 -- -- 81
2019-09-23 07:00:00 19.4 14 Noroeste 27 Noroeste 0 -- -- 85
2019-09-23 06:00:00 20 13 Norte 30 Noroeste 0 -- -- 87
2019-09-23 05:00:00 20.1 11 Noroeste 28 Noroeste 0 -- -- 84
2019-09-23 04:00:00 19.9 10 Noroeste 23 Noroeste 0 -- -- 86
2019-09-23 03:00:00 19.9 12 Noroeste 21 Noroeste 0 -- -- 88
2019-09-23 02:00:00 20.3 9 Noroeste 17 Noroeste 0 -- -- 90
2019-09-23 01:00:00 20.1 12 Noroeste 21 Noroeste 0.2 -- -- 92
2019-09-23 00:00:00 20.2 8 Noroeste 18 Norte 0.4 -- -- 92
2019-09-22 23:00:00 20.5 9 Norte 22 Norte 0 -- -- 89
2019-09-22 22:00:00 20.4 13 Norte 25 Norte 0.6 -- -- 91
2019-09-22 21:00:00 21 12 Noroeste 27 Norte 0 -- -- 90
2019-09-22 20:00:00 22.3 12 Norte 28 Norte 0 -- -- 85
2019-09-22 19:00:00 23.9 16 Norte 32 Noroeste 0 -- -- 77
2019-09-22 18:00:00 25.6 13 Norte 27 Nordeste 0 -- -- 68
2019-09-22 17:00:00 26.1 12 Norte 27 Norte 0 -- -- 65
2019-09-22 16:00:00 27.1 19 Norte 32 Nordeste 0 -- -- 62
2019-09-22 15:00:00 26.1 18 Nordeste 35 Este 0 -- -- 67
2019-09-22 14:00:00 27.1 13 Nordeste 32 Noroeste 0 -- -- 60
2019-09-22 13:00:00 27.3 14 Norte 27 Norte 0 -- -- 59
2019-09-22 12:00:00 26.4 13 Norte 30 Norte 0 -- -- 61
2019-09-22 11:00:00 25.9 19 Norte 28 Norte 0 -- -- 60
2019-09-22 10:00:00 24.9 12 Norte 22 Noroeste 0 -- -- 59
2019-09-22 09:00:00 22.2 11 Noroeste 19 Noroeste 0 -- -- 65
2019-09-22 08:00:00 18.7 6 Noroeste 10 Noroeste 0 -- -- 71
2019-09-22 07:00:00 17.8 5 Oeste 11 Norte 0 -- -- 74
2019-09-22 06:00:00 18.4 3 Noroeste 14 Noroeste 0 -- -- 76
2019-09-22 05:00:00 18.3 2 Nordeste 13 Sudoeste 0 -- -- 72
2019-09-22 04:00:00 18.9 8 Sudoeste 12 Sudoeste 0 -- -- 70
2019-09-22 03:00:00 20.6 9 Norte 17 Noroeste 0 -- -- 70
2019-09-22 02:00:00 20.6 13 Noroeste 21 Norte 0 -- -- 70
2019-09-22 01:00:00 20.2 13 Norte 20 Norte 0 -- -- 75
2019-09-22 00:00:00 20.4 11 Noroeste 18 Noroeste 0 -- -- 74
2019-09-21 23:00:00 20.4 9 Noroeste 24 Noroeste 0 -- -- 76
2019-09-21 22:00:00 20.2 9 Noroeste 21 Noroeste 0 -- -- 78
2019-09-21 21:00:00 20.7 10 Noroeste 20 Noroeste 0 -- -- 75
2019-09-21 20:00:00 21.4 12 Noroeste 24 Norte 0 -- -- 73
2019-09-21 19:00:00 23.3 15 Norte 33 Norte 0 -- -- 67
2019-09-21 18:00:00 24.9 21 Norte 30 Norte 0 -- -- 59
2019-09-21 17:00:00 25.8 12 Norte 27 Norte 0 -- -- 56
2019-09-21 16:00:00 26.4 14 Norte 31 Este 0 -- -- 54
2019-09-21 15:00:00 25.3 19 Este 32 Nordeste 0 -- -- 62
2019-09-21 14:00:00 25.5 14 Nordeste 27 Este 0 -- -- 59
2019-09-21 13:00:00 25.5 12 Nordeste 26 Este 0 -- -- 61
2019-09-21 12:00:00 25.1 12 Norte 24 Norte 0 -- -- 59
2019-09-21 11:00:00 24 13 Noroeste 25 Norte 0 -- -- 61
2019-09-21 10:00:00 23.3 12 Norte 21 Norte 0 -- -- 61
2019-09-21 09:00:00 19.3 4 Oeste 15 Sudoeste 0 -- -- 70
2019-09-21 08:00:00 16.9 10 Sudoeste 16 Oeste 0 -- -- 67
2019-09-21 07:00:00 16.3 7 Sudoeste 13 Sudoeste 0 -- -- 75
2019-09-21 06:00:00 16.4 8 Sudoeste 17 Oeste 0 -- -- 81
2019-09-21 05:00:00 16.6 9 Oeste 14 Oeste 0 -- -- 83
2019-09-21 04:00:00 17.2 9 Sudoeste 13 Sudoeste 0 -- -- 84
2019-09-21 03:00:00 17.7 9 Oeste 15 Oeste 0 -- -- 82
2019-09-21 02:00:00 18.4 6 Oeste 12 Oeste 0 -- -- 83
2019-09-21 01:00:00 19.1 8 Oeste 16 Oeste 0 -- -- 83
2019-09-21 00:00:00 19.3 7 Norte 13 Norte 0 -- -- 81
2019-09-20 23:00:00 19.5 3 Oeste 23 Noroeste 0 -- -- 77
2019-09-20 22:00:00 19.9 12 Noroeste 22 Noroeste 0 -- -- 79
2019-09-20 21:00:00 20.1 13 Norte 22 Noroeste 0 -- -- 78
2019-09-20 20:00:00 21.2 14 Norte 26 Norte 0 -- -- 71
2019-09-20 19:00:00 23.4 17 Norte 33 Norte 0 -- -- 60
2019-09-20 18:00:00 24.8 16 Norte 34 Norte 0 -- -- 55
2019-09-20 17:00:00 25.5 19 Norte 32 Norte 0 -- -- 52
2019-09-20 16:00:00 26 15 Norte 32 Este 0 -- -- 55
2019-09-20 15:00:00 24.1 17 Este 31 Este 0 -- -- 65
2019-09-20 14:00:00 25.1 12 Nordeste 30 Nordeste 0 -- -- 60
2019-09-20 13:00:00 24 11 Norte 28 Nordeste 0 -- -- 65
2019-09-20 12:00:00 23.5 14 Nordeste 26 Nordeste 0 -- -- 68
2019-09-20 11:00:00 22.9 13 Norte 23 Norte 0 -- -- 69
2019-09-20 10:00:00 21.6 10 Noroeste 22 Oeste 0 -- -- 72
2019-09-20 09:00:00 19.6 14 Noroeste 28 Noroeste 0 -- -- 78
2019-09-20 08:00:00 18.9 12 Oeste 32 Noroeste 0 -- -- 77
2019-09-20 07:00:00 19.2 20 Noroeste 33 Oeste 0 -- -- 76
2019-09-20 06:00:00 19.1 19 Noroeste 36 Noroeste 0 -- -- 79
2019-09-20 05:00:00 19.3 20 Noroeste 35 Norte 0 -- -- 78
2019-09-20 04:00:00 19.3 14 Noroeste 32 Noroeste 0 -- -- 75
2019-09-20 03:00:00 19.5 13 Noroeste 27 Oeste 0 -- -- 75
2019-09-20 02:00:00 19.5 14 Noroeste 32 Noroeste 0 -- -- 76
2019-09-20 01:00:00 20.2 13 Norte 27 Noroeste 0 -- -- 67
2019-09-20 00:00:00 19.6 14 Noroeste 26 Noroeste 0 -- -- 75
2019-09-19 23:00:00 19.7 12 Noroeste 30 Noroeste 0 -- -- 78
2019-09-19 22:00:00 19.9 15 Noroeste 30 Noroeste 0 -- -- 79
2019-09-19 21:00:00 20.3 17 Noroeste 29 Noroeste 0 -- -- 75
2019-09-19 20:00:00 21.1 14 Noroeste 35 Noroeste 0 -- -- 75
2019-09-19 19:00:00 22.4 18 Norte 35 Norte 0 -- -- 70
2019-09-19 18:00:00 24 16 Norte 29 Norte 0 -- -- 65
2019-09-19 17:00:00 24.6 23 Norte 34 Norte 0 -- -- 62
2019-09-19 16:00:00 25 19 Norte 32 Norte 0 -- -- 60
2019-09-19 15:00:00 25.3 14 Norte 32 Norte 0 -- -- 58
2019-09-19 14:00:00 25.4 17 Norte 31 Norte 0 -- -- 59
2019-09-19 13:00:00 24.7 17 Norte 32 Norte 0 -- -- 61
2019-09-19 12:00:00 24 15 Norte 29 Norte 0 -- -- 62
2019-09-19 11:00:00 22.2 13 Norte 27 Norte 0 -- -- 68
2019-09-19 10:00:00 20.7 10 Norte 28 Noroeste 0 -- -- 77
2019-09-19 09:00:00 20.1 11 Noroeste 22 Noroeste 0 -- -- 75
2019-09-19 08:00:00 19 10 Noroeste 24 Oeste 0 -- -- 78
2019-09-19 07:00:00 19.3 14 Oeste 27 Noroeste 0 -- -- 76
2019-09-19 06:00:00 19.1 12 Noroeste 24 Noroeste 0 -- -- 78
2019-09-19 05:00:00 19 10 Noroeste 25 Noroeste 0 -- -- 79
2019-09-19 04:00:00 18.6 8 Noroeste 23 Oeste 0 -- -- 83
2019-09-19 03:00:00 18.1 10 Oeste 18 Noroeste 0 -- -- 81
2019-09-19 02:00:00 18.5 6 Norte 18 Noroeste 0 -- -- 85
2019-09-19 01:00:00 19 8 Noroeste 21 Oeste 0 -- -- 83
2019-09-19 00:00:00 19.4 10 Noroeste 19 Oeste 0 -- -- 82
2019-09-18 23:00:00 19.5 8 Noroeste 21 Noroeste 0 -- -- 83
2019-09-18 22:00:00 19.8 13 Norte 25 Noroeste 0 -- -- 79
2019-09-18 21:00:00 20 14 Noroeste 26 Noroeste 0 -- -- 79
2019-09-18 20:00:00 20.5 10 Noroeste 25 Norte 0 -- -- 78
2019-09-18 19:00:00 22.4 14 Norte 23 Norte 0 -- -- 70
2019-09-18 18:00:00 22.4 14 Nordeste 30 Nordeste 0 -- -- 71
2019-09-18 17:00:00 23.3 14 Nordeste 28 Norte 0 -- -- 70
2019-09-18 16:00:00 23.9 14 Nordeste 30 Nordeste 0 -- -- 67
2019-09-18 15:00:00 24.1 14 Nordeste 29 Nordeste 0 -- -- 66
2019-09-18 14:00:00 24.9 13 Nordeste 28 Este 0 -- -- 62
2019-09-18 13:00:00 24.1 13 Nordeste 28 Nordeste 0 -- -- 64
2019-09-18 12:00:00 23.3 14 Nordeste 29 Norte 0 -- -- 67
2019-09-18 11:00:00 23.1 14 Norte 26 Norte 0 -- -- 66
2019-09-18 10:00:00 21.1 17 Norte 25 Norte 0 -- -- 71
2019-09-18 09:00:00 19.1 9 Oeste 18 Oeste 0 -- -- 79
2019-09-18 08:00:00 18.9 12 Oeste 21 Oeste 0 -- -- 79
2019-09-18 07:00:00 19.1 6 Noroeste 19 Noroeste 0 -- -- 82
2019-09-18 06:00:00 19 10 Noroeste 23 Oeste 0 -- -- 82
2019-09-18 05:00:00 18.9 6 Oeste 22 Noroeste 0 -- -- 83
2019-09-18 04:00:00 18.4 12 Noroeste 25 Oeste 0 -- -- 84
2019-09-18 03:00:00 18.9 11 Noroeste 19 Norte 0 -- -- 85
2019-09-18 02:00:00 19.1 7 Noroeste 23 Noroeste 0 -- -- 84
2019-09-18 01:00:00 19.2 8 Noroeste 24 Oeste 0 -- -- 84
2019-09-18 00:00:00 19.4 13 Norte 21 Noroeste 0 -- -- 82